Time;durP1;ratioP1;P1;durP2;ratioP2;P2;SDS_P1;SDS_P2;PMS_P1;PMS_P2;Temp;Humidity;BMP_temperature;BMP_pressure;BME280_temperature;BME280_humidity;BME280_pressure;Samples;Min_cycle;Max_cycle;Signal;HPM_P1;HPM_P2
2022/11/13 00:01:06;;;;;;;15.57;10.65;;;;;;;5.93;87.66;100991.59;1086942;54;20047;-79
2022/11/13 00:02:10;;;;;;;12.63;10.00;;;;;;;5.95;87.40;101002.13;1087131;54;20030;-79
2022/11/13 00:03:11;;;;;;;15.07;10.63;;;;;;;5.94;87.39;100995.94;1087027;54;20038;-79
2022/11/13 00:04:15;;;;;;;15.65;10.40;;;;;;;5.93;87.62;100998.72;1087172;54;20039;-79
2022/11/13 00:05:17;;;;;;;12.93;10.88;;;;;;;5.99;87.49;100995.72;1087051;54;20069;-79
2022/11/13 00:06:24;;;;;;;18.20;11.43;;;;;;;5.97;87.63;100989.59;1087071;54;20607;-79
2022/11/13 00:07:27;;;;;;;11.90;9.32;;;;;;;5.96;87.65;101001.16;1087151;54;20038;-79
2022/11/13 00:08:31;;;;;;;19.05;11.10;;;;;;;5.96;87.82;100987.88;1087186;54;20065;-79
2022/11/13 00:09:35;;;;;;;12.25;9.27;;;;;;;6.02;87.72;100986.69;1087218;54;20042;-79
2022/11/13 00:10:36;;;;;;;11.13;8.95;;;;;;;6.05;87.59;100986.53;1086931;54;20079;-79
2022/11/13 00:11:41;;;;;;;11.63;8.80;;;;;;;6.07;87.17;100977.50;1087272;54;20042;-79
2022/11/13 00:12:42;;;;;;;10.35;8.80;;;;;;;6.09;87.27;100983.59;1087134;54;20042;-80
2022/11/13 00:13:47;;;;;;;18.27;10.25;;;;;;;6.04;87.31;100991.00;1087598;46;20027;-79
2022/11/13 00:14:48;;;;;;;11.07;9.40;;;;;;;6.04;87.39;100976.84;1087380;54;20049;-80
2022/11/13 00:15:59;;;;;;;10.80;8.77;;;;;;;6.06;87.25;100975.81;1087509;46;20027;-79
2022/11/13 00:17:00;;;;;;;18.30;10.88;;;;;;;5.94;87.57;100984.50;1087313;54;20065;-79
2022/11/13 00:18:04;;;;;;;15.02;11.38;;;;;;;5.81;87.94;100984.34;1088800;39;20557;-80
2022/11/13 00:19:06;;;;;;;17.52;11.98;;;;;;;5.78;88.54;100985.38;1087283;54;20627;-79
2022/11/13 00:20:11;;;;;;;23.02;12.45;;;;;;;5.68;88.92;100992.19;1087464;54;20066;-79
2022/11/13 00:21:14;;;;;;;24.88;13.55;;;;;;;5.67;89.27;100987.81;1087103;54;20038;-79
2022/11/13 00:22:21;;;;;;;29.13;13.93;;;;;;;5.59;89.29;100990.06;1087520;54;20027;-79
2022/11/13 00:23:23;;;;;;;27.85;13.80;;;;;;;5.55;89.71;100988.56;1087490;54;20027;-80
2022/11/13 00:24:27;;;;;;;38.85;14.30;;;;;;;5.45;89.96;100989.09;1087554;54;20042;-78
2022/11/13 00:25:29;;;;;;;33.88;13.60;;;;;;;5.47;90.39;100981.03;1087600;54;20035;-79
2022/11/13 00:26:33;;;;;;;32.55;13.60;;;;;;;5.37;90.84;100978.06;1087599;54;20098;-79
2022/11/13 00:27:35;;;;;;;33.58;13.98;;;;;;;5.26;91.42;100978.66;1087639;54;20034;-79
2022/11/13 00:28:45;;;;;;;48.35;15.88;;;;;;;5.21;91.77;100990.47;1087483;54;20038;-79
2022/11/13 00:29:47;;;;;;;43.30;15.48;;;;;;;5.20;91.88;100980.81;1087571;54;20053;-79
2022/11/13 00:30:52;;;;;;;39.55;17.63;;;;;;;5.14;92.19;100982.03;1088342;46;20041;-80
2022/11/13 00:31:53;;;;;;;33.22;16.33;;;;;;;5.08;92.42;100985.88;1090480;46;20061;-79
2022/11/13 00:32:58;;;;;;;32.55;16.08;;;;;;;5.10;92.60;100981.31;1087336;54;20030;-80
2022/11/13 00:34:02;;;;;;;30.90;14.88;;;;;;;5.17;92.07;100978.34;1087347;54;20038;-79
2022/11/13 00:35:05;;;;;;;36.38;15.48;;;;;;;5.15;92.22;100974.00;1087249;54;20034;-79
2022/11/13 00:36:15;;;;;;;42.50;15.57;;;;;;;5.14;92.36;100979.38;1087318;54;20030;-79
2022/11/13 00:37:19;;;;;;;40.40;15.80;;;;;;;5.10;92.60;100980.47;1087253;54;20041;-80
2022/11/13 00:38:23;;;;;;;63.42;16.83;;;;;;;5.04;93.02;100970.25;1087175;54;20038;-79
2022/11/13 00:39:25;;;;;;;35.67;15.45;;;;;;;4.97;93.18;100967.06;1087188;54;20042;-80
2022/11/13 00:40:29;;;;;;;31.15;15.40;;;;;;;4.93;93.33;100971.69;1087182;54;20030;-79
2022/11/13 00:41:30;;;;;;;53.50;16.17;;;;;;;4.89;93.82;100971.94;1087165;54;20041;-80
2022/11/13 00:42:34;;;;;;;33.83;14.68;;;;;;;4.93;93.85;100973.47;1087137;54;20094;-80
2022/11/13 00:43:36;;;;;;;30.70;14.68;;;;;;;4.96;93.62;100965.34;1087185;54;20070;-80
2022/11/13 00:44:40;;;;;;;27.88;15.73;;;;;;;4.92;93.70;100964.69;1087085;54;20034;-79
2022/11/13 00:45:42;;;;;;;28.08;16.00;;;;;;;4.89;93.67;100971.94;1087150;54;20039;-79
2022/11/13 00:46:46;;;;;;;25.75;15.25;;;;;;;4.93;93.41;100961.09;1087159;54;20028;-80
2022/11/13 00:47:47;;;;;;;40.75;14.75;;;;;;;4.86;93.72;100958.88;1087322;54;21087;-80
2022/11/13 00:48:51;;;;;;;58.45;16.73;;;;;;;4.82;93.52;100951.06;1087192;54;20018;-79
2022/11/13 00:49:53;;;;;;;29.95;15.13;;;;;;;4.80;93.52;100947.69;1087283;54;20053;-80
2022/11/13 00:50:57;;;;;;;36.20;15.05;;;;;;;4.77;93.66;100961.09;1087058;54;20034;-79
2022/11/13 00:51:59;;;;;;;23.77;14.38;;;;;;;4.81;93.72;100946.75;1087507;47;20749;-80
2022/11/13 00:53:06;;;;;;;42.78;15.93;;;;;;;4.78;93.66;100948.69;1087226;54;20035;-79
2022/11/13 00:54:07;;;;;;;47.53;14.30;;;;;;;4.82;93.26;100955.53;1087211;54;20043;-79
2022/11/13 00:55:11;;;;;;;44.35;15.20;;;;;;;4.83;92.95;100963.38;1087242;54;20074;-80
2022/11/13 00:56:13;;;;;;;22.05;14.95;;;;;;;4.76;93.40;100958.53;1087188;54;20031;-79
2022/11/13 00:57:17;;;;;;;44.90;15.50;;;;;;;4.67;93.83;100957.22;1087317;54;20034;-80
2022/11/13 00:58:18;;;;;;;30.33;13.90;;;;;;;4.80;93.15;100958.28;1087642;39;20677;-79
2022/11/13 00:59:23;;;;;;;22.42;12.65;;;;;;;4.94;92.44;100946.03;1087242;54;20042;-79
2022/11/13 01:00:24;;;;;;;15.77;12.48;;;;;;;5.08;91.99;100948.78;1087225;54;20042;-79
2022/11/13 01:01:28;;;;;;;13.52;10.85;;;;;;;5.15;91.48;100947.47;1087328;54;20031;-79
2022/11/13 01:02:30;;;;;;;13.80;10.88;;;;;;;5.24;91.16;100945.22;1087689;39;20511;-81
2022/11/13 01:03:34;;;;;;;16.50;10.70;;;;;;;5.26;90.90;100946.00;1087219;54;20034;-79
2022/11/13 01:04:35;;;;;;;32.50;13.20;;;;;;;5.02;91.55;100946.44;1087162;54;20046;-79
2022/11/13 01:05:40;;;;;;;31.63;13.80;;;;;;;4.90;91.94;100944.50;1087415;54;20082;-79
2022/11/13 01:06:43;;;;;;;39.78;14.95;;;;;;;4.77;92.33;100949.66;1087485;54;20052;-79
2022/11/13 01:07:47;;;;;;;31.98;14.82;;;;;;;4.72;92.87;100944.59;1087587;54;20026;-79
2022/11/13 01:08:54;;;;;;;32.78;14.38;;;;;;;4.67;93.12;100951.94;1087484;54;20065;-79
2022/11/13 01:09:58;;;;;;;47.92;14.75;;;;;;;4.68;92.95;100938.59;1087526;54;20045;-80
2022/11/13 01:11:06;;;;;;;42.92;14.57;;;;;;;4.60;93.46;100948.75;1087531;54;20042;-79
2022/11/13 01:12:10;;;;;;;36.55;12.95;;;;;;;4.64;92.97;100946.78;1087426;54;20781;-79
2022/11/13 01:13:12;;;;;;;31.02;12.82;;;;;;;4.63;92.83;100948.59;1087449;54;20035;-79
2022/11/13 01:14:16;;;;;;;32.42;13.18;;;;;;;4.64;92.68;100949.44;1087480;54;20030;-80
2022/11/13 01:15:18;;;;;;;41.08;14.55;;;;;;;4.56;93.16;100946.38;1087439;54;20074;-79
2022/11/13 01:16:24;;;;;;;39.13;14.82;;;;;;;4.49;93.44;100941.41;1087415;54;20615;-79
2022/11/13 01:17:26;;;;;;;35.92;13.82;;;;;;;4.41;93.69;100943.63;1087558;54;20031;-79
2022/11/13 01:18:30;;;;;;;50.35;14.43;;;;;;;4.34;93.92;100947.56;1087456;54;20038;-80
2022/11/13 01:19:32;;;;;;;47.33;15.10;;;;;;;4.27;93.97;100948.78;1087524;54;20035;-80
2022/11/13 01:20:37;;;;;;;41.90;13.50;;;;;;;4.30;93.54;100946.00;1087465;54;20057;-79
2022/11/13 01:21:38;;;;;;;58.63;14.45;;;;;;;4.24;93.80;100941.88;1087323;54;20030;-80
2022/11/13 01:22:42;;;;;;;37.45;13.63;;;;;;;4.25;94.16;100938.31;1086846;54;20074;-80
2022/11/13 01:23:44;;;;;;;70.50;15.07;;;;;;;4.19;94.02;100934.19;1087325;54;20698;-79
2022/11/13 01:24:51;;;;;;;50.30;14.02;;;;;;;4.15;93.94;100942.38;1087247;54;20936;-79
2022/11/13 01:25:53;;;;;;;38.03;13.00;;;;;;;4.16;93.72;100939.63;1087492;54;20038;-79
2022/11/13 01:26:57;;;;;;;32.58;13.00;;;;;;;4.19;93.57;100942.13;1087009;54;20082;-80
2022/11/13 01:27:58;;;;;;;28.63;11.98;;;;;;;4.27;93.11;100938.22;1087359;54;20658;-80
2022/11/13 01:29:03;;;;;;;21.85;12.55;;;;;;;4.19;93.34;100943.94;1087533;54;20037;-80
2022/11/13 01:30:06;;;;;;;22.23;12.48;;;;;;;4.29;93.17;100938.97;1087471;54;20086;-79
2022/11/13 01:31:12;;;;;;;31.95;13.13;;;;;;;4.22;92.86;100933.16;1087533;54;20627;-79
2022/11/13 01:32:13;;;;;;;23.27;12.13;;;;;;;4.14;93.06;100933.59;1087596;54;20053;-80
2022/11/13 01:33:17;;;;;;;34.22;12.73;;;;;;;4.08;93.25;100928.59;1087510;54;20038;-80
2022/11/13 01:34:19;;;;;;;38.88;12.82;;;;;;;4.04;93.11;100941.13;1087584;54;20643;-78
2022/11/13 01:35:23;;;;;;;40.30;13.45;;;;;;;4.01;93.45;100940.44;1088709;39;20972;-79
2022/11/13 01:36:26;;;;;;;33.42;13.70;;;;;;;3.97;93.74;100925.69;1087412;54;20042;-82
2022/11/13 01:37:31;;;;;;;65.25;14.93;;;;;;;3.89;93.96;100926.94;1087559;54;20034;-79
2022/11/13 01:38:34;;;;;;;25.77;12.18;;;;;;;3.95;93.62;100935.50;1087382;54;20043;-81
2022/11/13 01:39:38;;;;;;;37.13;12.60;;;;;;;3.86;94.06;100927.09;1091574;39;20665;-79
2022/11/13 01:40:47;;;;;;;25.85;11.82;;;;;;;3.89;94.13;100932.22;1090974;39;20582;-79
2022/11/13 01:41:51;;;;;;;60.38;14.73;;;;;;;3.85;94.27;100929.81;1087465;54;20791;-79
2022/11/13 01:42:52;;;;;;;32.63;12.30;;;;;;;3.81;94.36;100930.91;1087591;54;20709;-79
2022/11/13 01:43:58;;;;;;;36.55;12.65;;;;;;;3.73;94.70;100926.84;1087477;54;20018;-80
2022/11/13 01:45:01;;;;;;;34.90;13.43;;;;;;;3.73;94.71;100941.88;1087623;54;20738;-79
2022/11/13 01:46:19;;;;;;;48.65;13.82;;;;;;;3.67;94.92;100931.63;1087589;54;20058;-79
2022/11/13 01:47:24;;;;;;;27.90;11.70;;;;;;;3.82;94.75;100927.34;1087499;54;20031;-79
2022/11/13 01:48:31;;;;;;;19.10;10.68;;;;;;;3.89;94.37;100932.22;1087105;54;20038;-79
2022/11/13 01:49:39;;;;;;;41.15;13.60;;;;;;;3.78;94.41;100926.63;1087504;54;20037;-79
2022/11/13 01:50:41;;;;;;;41.80;14.23;;;;;;;3.80;94.77;100922.13;1086996;54;20038;-81
2022/11/13 01:51:52;;;;;;;42.83;14.15;;;;;;;3.78;94.78;100918.69;1086997;54;20032;-82
2022/11/13 01:52:53;;;;;;;54.30;14.30;;;;;;;3.64;95.22;100916.75;1087440;54;20038;-79
2022/11/13 01:53:59;;;;;;;24.75;12.77;;;;;;;3.68;95.32;100910.38;1087379;54;20131;-79
2022/11/13 01:55:03;;;;;;;30.15;12.75;;;;;;;3.72;95.18;100921.66;1087508;54;20085;-79
2022/11/13 01:56:10;;;;;;;28.63;12.05;;;;;;;3.81;94.82;100909.75;1087444;54;20409;-79
2022/11/13 01:57:16;;;;;;;23.50;12.20;;;;;;;3.90;94.42;100912.75;1087321;54;20061;-79
2022/11/13 01:58:18;;;;;;;12.45;11.00;;;;;;;4.08;93.66;100910.06;1087446;54;20031;-79
2022/11/13 01:59:25;;;;;;;13.52;9.93;;;;;;;4.21;92.95;100904.97;1087421;54;20037;-79
2022/11/13 02:00:27;;;;;;;11.13;9.82;;;;;;;4.32;92.21;100909.72;1087423;54;20062;-79
2022/11/13 02:01:31;;;;;;;11.82;8.95;;;;;;;4.38;92.08;100906.72;1087412;54;20085;-79
2022/11/13 02:02:32;;;;;;;10.82;9.02;;;;;;;4.45;91.63;100901.94;1087522;54;20061;-78
2022/11/13 02:03:37;;;;;;;10.60;9.00;;;;;;;4.48;91.13;100902.63;1087441;54;20091;-80
2022/11/13 02:04:38;;;;;;;17.10;9.00;;;;;;;4.52;91.13;100900.66;1090118;46;20034;-79
2022/11/13 02:05:43;;;;;;;11.88;9.18;;;;;;;4.56;90.54;100894.28;1087450;54;20050;-80
2022/11/13 02:06:49;;;;;;;13.80;8.82;;;;;;;4.58;90.69;100894.19;1087421;54;20014;-79
2022/11/13 02:07:54;;;;;;;41.67;11.95;;;;;;;4.35;91.06;100896.28;1087254;54;20030;-79
2022/11/13 02:08:55;;;;;;;13.90;9.05;;;;;;;4.43;91.07;100904.69;1087245;54;20050;-79
2022/11/13 02:10:00;;;;;;;11.95;9.60;;;;;;;4.51;90.75;100899.81;1087534;54;20026;-79
2022/11/13 02:11:02;;;;;;;35.80;11.93;;;;;;;4.48;90.50;100897.34;1087565;54;20054;-79
2022/11/13 02:12:12;;;;;;;22.58;9.85;;;;;;;4.49;90.26;100887.59;1087596;54;20050;-79
2022/11/13 02:13:14;;;;;;;17.55;10.00;;;;;;;4.45;89.95;100899.31;1087517;54;20023;-79
2022/11/13 02:14:20;;;;;;;17.17;8.75;;;;;;;4.50;89.51;100894.59;1087602;54;20045;-79
2022/11/13 02:15:25;;;;;;;29.33;9.95;;;;;;;4.47;89.66;100895.63;1087650;54;20042;-79
2022/11/13 02:16:32;;;;;;;38.20;11.15;;;;;;;4.41;89.66;100890.69;1087412;54;20034;-79
2022/11/13 02:17:41;;;;;;;14.13;9.48;;;;;;;4.45;89.66;100902.78;1087616;54;20030;-79
2022/11/13 02:18:45;;;;;;;23.80;10.05;;;;;;;4.36;89.58;100893.56;1089088;39;20535;-79
2022/11/13 02:19:51;;;;;;;17.08;9.63;;;;;;;4.36;90.08;100893.56;1087690;54;20034;-78
2022/11/13 02:21:04;;;;;;;13.60;10.18;;;;;;;4.43;89.71;100887.94;1087491;54;20107;-80
2022/11/13 02:22:16;;;;;;;16.00;9.27;;;;;;;4.46;89.06;100883.31;1087593;54;20042;-81
2022/11/13 02:23:27;;;;;;;12.90;8.82;;;;;;;4.49;89.49;100883.16;1087166;54;20034;-80
2022/11/13 02:24:35;;;;;;;12.07;8.65;;;;;;;4.48;89.33;100881.44;1087484;54;20045;-80
2022/11/13 02:25:38;;;;;;;11.77;8.43;;;;;;;4.52;89.19;100882.13;1087612;54;20039;-80
2022/11/13 02:26:43;;;;;;;14.93;9.23;;;;;;;4.50;89.38;100874.28;1087510;54;20086;-80
2022/11/13 02:27:47;;;;;;;9.88;7.82;;;;;;;4.54;88.99;100874.97;1087526;54;20115;-80
2022/11/13 02:28:51;;;;;;;12.25;8.02;;;;;;;4.53;89.01;100882.03;1087498;54;20031;-81
2022/11/13 02:29:53;;;;;;;11.20;8.43;;;;;;;4.55;88.96;100870.50;1087517;54;20042;-80
2022/11/13 02:30:57;;;;;;;12.10;9.30;;;;;;;4.57;88.74;100873.94;1087533;54;20022;-80
2022/11/13 02:31:58;;;;;;;9.77;7.75;;;;;;;4.62;88.58;100869.25;1087504;54;20030;-80
2022/11/13 02:33:02;;;;;;;10.25;7.50;;;;;;;4.67;88.40;100867.19;1087556;54;20026;-80
2022/11/13 02:34:04;;;;;;;12.43;7.28;;;;;;;4.69;88.63;100862.66;1087538;54;20748;-80
2022/11/13 02:35:09;;;;;;;10.35;7.18;;;;;;;4.73;88.47;100869.47;1087556;54;20651;-80
2022/11/13 02:36:11;;;;;;;14.43;8.60;;;;;;;4.71;88.06;100866.06;1087502;54;20034;-81
2022/11/13 02:37:15;;;;;;;19.75;9.00;;;;;;;4.71;87.77;100865.19;1087578;54;20034;-80
2022/11/13 02:38:17;;;;;;;9.45;7.82;;;;;;;4.69;87.78;100867.94;1087614;54;20043;-80
2022/11/13 02:39:21;;;;;;;14.00;9.07;;;;;;;4.67;88.21;100864.53;1087431;54;20038;-81
2022/11/13 02:40:26;;;;;;;13.48;8.70;;;;;;;4.69;88.09;100863.50;1087585;54;20057;-80
2022/11/13 02:41:30;;;;;;;11.05;8.32;;;;;;;4.72;88.15;100856.31;1087615;54;20631;-81
2022/11/13 02:42:31;;;;;;;9.23;7.70;;;;;;;4.74;88.02;100847.34;1087695;54;20054;-82
2022/11/13 02:43:37;;;;;;;12.18;7.82;;;;;;;4.77;88.12;100857.75;1088037;54;20044;-80
2022/11/13 02:44:38;;;;;;;14.20;9.38;;;;;;;4.75;87.81;100851.69;1088006;54;20030;-81
2022/11/13 02:45:42;;;;;;;14.32;8.82;;;;;;;4.67;87.48;100848.63;1088058;54;20035;-80
2022/11/13 02:46:44;;;;;;;17.23;9.45;;;;;;;4.62;87.62;100862.13;1088055;54;20073;-80
2022/11/13 02:47:49;;;;;;;16.50;10.68;;;;;;;4.59;87.73;100853.50;1088111;54;20034;-80
2022/11/13 02:48:51;;;;;;;19.27;10.75;;;;;;;4.54;87.40;100864.38;1088325;46;20034;-81
2022/11/13 02:49:56;;;;;;;20.70;12.05;;;;;;;4.53;87.79;100863.50;1088075;54;20042;-82
2022/11/13 02:50:57;;;;;;;11.18;9.13;;;;;;;4.50;87.93;100858.38;1088485;39;20692;-81
2022/11/13 02:52:02;;;;;;;16.38;10.20;;;;;;;4.46;88.01;100856.84;1089765;39;20996;-80
2022/11/13 02:53:04;;;;;;;17.98;11.43;;;;;;;4.47;87.96;100855.06;1087700;54;20069;-81
2022/11/13 02:54:08;;;;;;;12.30;9.70;;;;;;;4.50;88.03;100861.03;1087762;54;20313;-80
2022/11/13 02:55:10;;;;;;;11.65;9.27;;;;;;;4.52;87.87;100850.34;1087694;54;20018;-81
2022/11/13 02:56:17;;;;;;;13.13;9.32;;;;;;;4.52;87.94;100845.06;1087569;54;20030;-81
2022/11/13 02:57:18;;;;;;;12.80;10.38;;;;;;;4.49;87.98;100851.38;1089790;46;20046;-81
2022/11/13 02:58:24;;;;;;;13.85;9.35;;;;;;;4.56;87.98;100853.69;1088091;54;20026;-82
2022/11/13 02:59:26;;;;;;;12.10;9.13;;;;;;;4.56;88.05;100856.31;1088048;54;20031;-81
2022/11/13 03:00:30;;;;;;;11.25;9.60;;;;;;;4.57;87.98;100856.25;1089614;46;20030;-80
2022/11/13 03:01:32;;;;;;;16.23;9.85;;;;;;;4.57;88.17;100852.75;1088033;54;20038;-80
2022/11/13 03:02:37;;;;;;;10.93;8.95;;;;;;;4.60;87.86;100863.16;1088128;54;20030;-81
2022/11/13 03:03:38;;;;;;;13.25;9.13;;;;;;;4.64;87.86;100860.25;1088146;54;20030;-82
2022/11/13 03:04:45;;;;;;;12.23;8.25;;;;;;;4.62;87.97;100854.19;1088105;54;20031;-82
2022/11/13 03:05:48;;;;;;;13.48;8.60;;;;;;;4.61;88.30;100849.00;1089909;46;20035;-82
2022/11/13 03:07:00;;;;;;;19.30;9.18;;;;;;;4.62;88.19;100846.25;1088798;46;20026;-81
2022/11/13 03:08:02;;;;;;;10.02;8.18;;;;;;;4.65;87.91;100847.84;1088082;54;20034;-80
2022/11/13 03:09:06;;;;;;;10.73;8.43;;;;;;;4.67;87.63;100844.22;1087714;54;20030;-80
2022/11/13 03:10:09;;;;;;;9.93;7.30;;;;;;;4.69;87.62;100847.59;1089491;39;20634;-80
2022/11/13 03:11:16;;;;;;;19.80;8.57;;;;;;;4.68;87.41;100842.41;1087401;54;20030;-82
2022/11/13 03:12:18;;;;;;;12.80;8.07;;;;;;;4.67;87.22;100846.84;1087524;54;20065;-81
2022/11/13 03:13:22;;;;;;;16.00;8.35;;;;;;;4.65;87.15;100847.84;1088633;46;20035;-82
2022/11/13 03:14:24;;;;;;;17.85;8.68;;;;;;;4.63;87.28;100842.66;1091074;39;20189;-80
2022/11/13 03:15:29;;;;;;;11.00;8.27;;;;;;;4.63;86.98;100847.13;1087671;54;20057;-80
2022/11/13 03:16:33;;;;;;;9.23;7.70;;;;;;;4.67;87.09;100843.34;1088694;39;20359;-80
2022/11/13 03:17:54;;;;;;;13.80;7.80;;;;;;;4.65;86.71;100839.91;1088111;54;20030;-81
2022/11/13 03:18:58;;;;;;;7.40;6.38;;;;;;;4.66;86.98;100844.28;1088145;54;20026;-80
2022/11/13 03:20:00;;;;;;;14.00;7.20;;;;;;;4.66;87.13;100846.91;1089158;46;20034;-79
2022/11/13 03:21:09;;;;;;;11.18;6.65;;;;;;;4.66;86.61;100844.28;1088076;54;20030;-80
2022/11/13 03:22:11;;;;;;;21.98;7.82;;;;;;;4.59;86.55;100845.56;1088134;39;20796;-80
2022/11/13 03:23:15;;;;;;;27.17;8.38;;;;;;;4.49;86.06;100846.09;1087656;54;20034;-80
2022/11/13 03:24:16;;;;;;;10.15;7.70;;;;;;;4.52;86.59;100848.56;1086946;54;20053;-80
2022/11/13 03:25:20;;;;;;;14.68;8.05;;;;;;;4.50;86.75;100850.44;1086988;54;20038;-80
2022/11/13 03:26:27;;;;;;;9.45;7.15;;;;;;;4.52;86.82;100845.94;1087452;54;20038;-80
2022/11/13 03:27:33;;;;;;;8.50;6.97;;;;;;;4.57;86.52;100847.44;1087418;54;20037;-80
2022/11/13 03:28:35;;;;;;;10.02;7.88;;;;;;;4.56;86.18;100840.44;1087194;54;20046;-79
2022/11/13 03:29:39;;;;;;;9.65;7.20;;;;;;;4.57;86.21;100836.84;1087378;54;20045;-79
2022/11/13 03:30:40;;;;;;;9.80;7.18;;;;;;;4.56;86.16;100843.09;1087312;54;20683;-80
2022/11/13 03:31:45;;;;;;;9.02;7.07;;;;;;;4.55;86.41;100849.31;1087390;54;20683;-80
2022/11/13 03:32:46;;;;;;;9.32;7.30;;;;;;;4.56;86.28;100843.94;1087422;54;20031;-80
2022/11/13 03:33:50;;;;;;;10.60;7.00;;;;;;;4.57;86.23;100845.66;1087414;54;20042;-80
2022/11/13 03:34:52;;;;;;;8.27;6.45;;;;;;;4.55;86.25;100844.03;1087407;54;20038;-79
2022/11/13 03:35:56;;;;;;;9.48;7.00;;;;;;;4.53;86.06;100837.00;1087374;54;20035;-80
2022/11/13 03:36:58;;;;;;;9.95;7.15;;;;;;;4.58;86.01;100842.03;1087378;54;20034;-80
2022/11/13 03:38:02;;;;;;;8.35;6.55;;;;;;;4.59;85.87;100837.63;1087432;54;20030;-80
2022/11/13 03:39:03;;;;;;;8.63;6.82;;;;;;;4.60;85.83;100837.53;1087418;54;20042;-79
2022/11/13 03:40:10;;;;;;;10.02;6.35;;;;;;;4.60;85.51;100837.53;1087367;54;20049;-80
2022/11/13 03:41:15;;;;;;;12.43;6.97;;;;;;;4.52;85.89;100837.09;1087191;54;20034;-80
2022/11/13 03:42:19;;;;;;;8.90;6.65;;;;;;;4.56;85.80;100829.84;1087392;54;20880;-80
2022/11/13 03:43:23;;;;;;;8.63;6.28;;;;;;;4.53;86.01;100842.31;1089935;39;20745;-80
2022/11/13 03:44:24;;;;;;;7.38;5.97;;;;;;;4.55;85.67;100825.47;1087434;54;20038;-80
2022/11/13 03:45:28;;;;;;;11.18;6.15;;;;;;;4.52;85.90;100840.63;1087383;54;20095;-79
2022/11/13 03:46:30;;;;;;;7.57;6.10;;;;;;;4.55;85.98;100828.13;1087334;54;20057;-80
2022/11/13 03:47:34;;;;;;;11.88;6.07;;;;;;;4.58;85.78;100831.44;1087354;54;20042;-80
2022/11/13 03:48:39;;;;;;;10.77;5.63;;;;;;;4.57;85.67;100832.41;1087502;54;20041;-80
2022/11/13 03:49:43;;;;;;;15.30;7.72;;;;;;;4.43;86.07;100830.56;1087433;54;20086;-81
2022/11/13 03:50:47;;;;;;;20.35;7.80;;;;;;;4.36;85.98;100834.47;1087272;54;20043;-80
2022/11/13 03:51:51;;;;;;;15.68;9.52;;;;;;;4.33;86.29;100839.94;1087364;54;20753;-80
2022/11/13 03:52:53;;;;;;;14.82;8.13;;;;;;;4.19;86.48;100827.47;1087405;54;20038;-80
2022/11/13 03:53:57;;;;;;;17.98;9.48;;;;;;;4.04;86.90;100826.53;1087375;54;20030;-80
2022/11/13 03:54:58;;;;;;;15.07;9.25;;;;;;;3.94;87.39;100827.94;1087702;46;20061;-80
2022/11/13 03:56:02;;;;;;;12.27;8.52;;;;;;;3.88;88.08;100827.31;1087360;54;20037;-80
2022/11/13 03:57:05;;;;;;;34.17;10.15;;;;;;;3.71;88.72;100824.72;1087400;54;20035;-80
2022/11/13 03:58:12;;;;;;;27.95;10.48;;;;;;;3.64;89.17;100823.34;1087418;54;20962;-80
2022/11/13 03:59:13;;;;;;;37.90;10.45;;;;;;;3.52;89.22;100828.34;1087351;54;20053;-81
2022/11/13 04:00:19;;;;;;;18.65;9.10;;;;;;;3.53;89.59;100826.56;1087279;54;20032;-80
2022/11/13 04:01:20;;;;;;;21.05;8.35;;;;;;;3.53;89.08;100829.22;1087346;54;20030;-79
2022/11/13 04:02:24;;;;;;;16.90;9.07;;;;;;;3.59;88.94;100829.72;1087435;54;20042;-80
2022/11/13 04:03:26;;;;;;;20.88;10.27;;;;;;;3.56;89.08;100832.56;1090351;39;20611;-80
2022/11/13 04:04:30;;;;;;;13.85;8.52;;;;;;;3.54;89.06;100831.78;1087350;54;20082;-80
2022/11/13 04:05:32;;;;;;;9.32;8.05;;;;;;;3.72;88.41;100829.09;1087400;54;20034;-79
2022/11/13 04:06:36;;;;;;;20.70;8.93;;;;;;;3.61;88.55;100826.16;1087414;54;20686;-79
2022/11/13 04:07:37;;;;;;;16.92;8.95;;;;;;;3.56;88.73;100827.25;1087393;54;20045;-80
2022/11/13 04:08:42;;;;;;;13.43;8.40;;;;;;;3.62;88.70;100823.44;1087436;54;20042;-79
2022/11/13 04:09:43;;;;;;;14.18;8.15;;;;;;;3.64;88.47;100818.91;1087376;54;20690;-80
2022/11/13 04:10:47;;;;;;;29.85;9.52;;;;;;;3.66;87.99;100819.69;1087336;54;20030;-81
2022/11/13 04:11:49;;;;;;;20.67;8.40;;;;;;;3.54;88.40;100821.19;1087413;54;20749;-81
2022/11/13 04:12:54;;;;;;;19.10;8.88;;;;;;;3.54;88.24;100820.34;1087334;54;20038;-79
2022/11/13 04:13:58;;;;;;;10.75;8.60;;;;;;;3.56;88.36;100826.41;1087414;54;20027;-80
2022/11/13 04:15:02;;;;;;;21.90;8.95;;;;;;;3.55;88.47;100827.31;1087371;54;20049;-80
2022/11/13 04:16:04;;;;;;;21.23;9.05;;;;;;;3.46;88.74;100822.53;1087365;54;20050;-80
2022/11/13 04:17:08;;;;;;;17.83;8.45;;;;;;;3.44;88.82;100827.91;1087462;54;20030;-81
2022/11/13 04:18:10;;;;;;;18.13;9.18;;;;;;;3.34;89.17;100824.03;1087359;54;20046;-80
2022/11/13 04:19:15;;;;;;;22.73;9.30;;;;;;;3.33;89.03;100819.66;1087385;54;20031;-80
2022/11/13 04:20:16;;;;;;;16.95;9.68;;;;;;;3.24;89.38;100819.22;1087303;54;20685;-80
2022/11/13 04:21:21;;;;;;;16.27;9.23;;;;;;;3.22;89.68;100818.44;1087344;54;20030;-80
2022/11/13 04:22:22;;;;;;;26.20;9.88;;;;;;;3.15;89.81;100830.25;1087388;54;20071;-80
2022/11/13 04:23:26;;;;;;;23.27;9.70;;;;;;;3.09;89.90;100822.66;1088309;39;20566;-80
2022/11/13 04:24:27;;;;;;;12.30;9.20;;;;;;;3.04;90.36;100820.22;1087925;46;20793;-80
2022/11/13 04:25:32;;;;;;;18.23;9.43;;;;;;;3.07;90.49;100817.41;1089118;46;20738;-80
2022/11/13 04:26:33;;;;;;;18.67;9.15;;;;;;;3.09;89.98;100820.84;1087365;54;20061;-81
2022/11/13 04:27:38;;;;;;;20.35;8.98;;;;;;;3.04;90.11;100825.53;1087376;54;20042;-80
2022/11/13 04:28:39;;;;;;;17.30;9.95;;;;;;;3.02;90.36;100824.72;1088781;46;20822;-80
2022/11/13 04:29:46;;;;;;;14.13;8.82;;;;;;;3.05;90.41;100816.66;1088165;31;20745;-80
2022/11/13 04:30:48;;;;;;;12.45;8.30;;;;;;;3.15;90.00;100814.41;1087247;54;20058;-80
2022/11/13 04:31:52;;;;;;;15.13;8.88;;;;;;;3.13;89.68;100824.19;1089473;39;20692;-80
2022/11/13 08:57:49;;;;;;;7.68;5.82;;;;;;;6.80;76.85;100587.69;1086725;54;20023;-79
2022/11/13 08:58:53;;;;;;;7.55;6.07;;;;;;;6.95;76.52;100580.44;1087390;54;20037;-79
2022/11/13 09:00:35;;;;;;;6.97;5.57;;;;;;;7.20;76.60;100581.34;1087439;54;20023;-80
2022/11/13 09:27:05;;;;;;;8.77;5.30;;;;;;;9.33;65.08;100548.38;1087229;54;20003;-78
2022/11/13 09:28:06;;;;;;;7.07;5.63;;;;;;;9.50;67.35;100546.16;1087222;54;20031;-78
2022/11/13 09:29:11;;;;;;;6.40;4.97;;;;;;;9.64;67.47;100545.00;1087196;54;20062;-77
2022/11/13 09:30:12;;;;;;;6.47;5.28;;;;;;;9.74;67.16;100542.44;1087521;46;20057;-79
2022/11/13 09:31:17;;;;;;;5.95;4.63;;;;;;;9.98;66.58;100542.22;1087192;54;20093;-78
2022/11/13 09:32:21;;;;;;;6.70;5.28;;;;;;;9.96;65.90;100553.03;1087240;54;20038;-78
2022/11/13 09:33:25;;;;;;;6.70;5.40;;;;;;;10.03;65.53;100550.69;1087458;54;20046;-77
2022/11/13 09:34:30;;;;;;;7.82;5.93;;;;;;;10.21;65.62;100550.09;1087688;54;20053;-78
2022/11/13 09:35:35;;;;;;;7.88;5.50;;;;;;;10.39;65.31;100547.72;1087559;54;20049;-77
2022/11/13 09:36:39;;;;;;;6.22;5.07;;;;;;;10.56;64.90;100541.78;1087611;54;20037;-77
2022/11/13 09:37:40;;;;;;;6.32;4.68;;;;;;;10.76;64.88;100544.53;1087596;54;20045;-77
2022/11/13 09:38:44;;;;;;;6.63;4.97;;;;;;;10.91;64.38;100540.53;1088157;46;20035;-77
2022/11/13 09:39:46;;;;;;;7.82;5.72;;;;;;;11.05;64.17;100531.28;1087776;54;20042;-78
2022/11/13 09:40:55;;;;;;;6.88;5.00;;;;;;;11.11;63.87;100545.09;1092586;39;20653;-77
2022/11/13 09:42:12;;;;;;;7.25;5.78;;;;;;;11.26;63.09;100549.09;1087506;54;20030;-78
2022/11/13 09:43:29;;;;;;;7.03;5.63;;;;;;;11.11;60.54;100543.25;1089140;46;20027;-78
2022/11/13 09:44:38;;;;;;;6.95;5.65;;;;;;;11.20;62.66;100534.41;1088083;39;20318;-77
2022/11/13 09:45:40;;;;;;;6.82;4.97;;;;;;;11.30;62.76;100534.47;1087534;54;20054;-78
2022/11/13 09:46:48;;;;;;;7.63;5.78;;;;;;;11.44;62.16;100535.88;1087873;46;20037;-77
2022/11/13 09:47:53;;;;;;;6.60;4.88;;;;;;;11.58;61.89;100537.31;1089614;46;20031;-78